createdAt,value
2022-12-18T00:04:44.221Z,8.40
2022-12-18T00:19:45.668Z,8.20
2022-12-18T00:34:47.116Z,8.40
2022-12-18T00:49:48.575Z,8.43
2022-12-18T01:04:50.046Z,7.93
2022-12-18T01:19:51.531Z,8.10
2022-12-18T01:34:52.981Z,8.90
2022-12-18T01:49:54.445Z,8.40
2022-12-18T02:04:55.909Z,9.03
2022-12-18T02:19:57.390Z,9.60
2022-12-18T02:34:58.872Z,8.37
2022-12-18T02:50:00.348Z,8.07
2022-12-18T03:05:02.931Z,9.57
2022-12-18T03:20:04.384Z,7.70
2022-12-18T03:35:05.863Z,7.80
2022-12-18T03:50:12.426Z,7.77
2022-12-18T04:05:14.225Z,7.47
2022-12-18T04:20:15.681Z,8.03
2022-12-18T04:35:17.165Z,7.50
2022-12-18T04:50:18.641Z,7.73
2022-12-18T05:05:20.105Z,6.47
2022-12-18T05:20:21.573Z,7.17
2022-12-18T05:35:23.041Z,6.17
2022-12-18T05:50:24.538Z,6.87
2022-12-18T06:05:26.470Z,6.30
2022-12-18T06:20:33.113Z,6.70
2022-12-18T06:35:35.056Z,6.50
2022-12-18T06:50:36.555Z,6.77
2022-12-18T07:05:38.026Z,6.30
2022-12-18T07:20:39.490Z,6.90
2022-12-18T07:35:40.972Z,8.60
2022-12-18T07:50:42.457Z,18.73
2022-12-18T08:05:43.926Z,18.47
2022-12-18T08:20:45.396Z,15.60
2022-12-18T08:35:46.858Z,13.20
2022-12-18T08:50:48.327Z,10.80
2022-12-18T09:05:49.784Z,8.03
2022-12-18T09:20:51.311Z,6.70
2022-12-18T09:35:52.757Z,6.80
2022-12-18T09:50:54.226Z,6.03
2022-12-18T10:05:55.678Z,6.30
2022-12-18T10:20:57.116Z,5.37
2022-12-18T10:35:58.588Z,5.03
2022-12-18T10:51:15.329Z,4.83
2022-12-18T11:06:16.804Z,5.27
2022-12-18T11:21:18.268Z,4.93
2022-12-18T11:36:19.727Z,5.07
2022-12-18T11:51:26.241Z,4.70
2022-12-18T12:06:28.645Z,4.77
2022-12-18T12:21:30.088Z,4.93
2022-12-18T12:36:31.692Z,5.67
2022-12-18T12:51:33.146Z,4.60
2022-12-18T13:06:34.673Z,4.13
2022-12-18T13:21:36.390Z,4.63
2022-12-18T13:36:37.845Z,4.47
2022-12-18T13:51:39.296Z,4.57
2022-12-18T14:06:40.739Z,4.40
2022-12-18T14:21:42.215Z,3.90
2022-12-18T14:36:43.659Z,4.00
2022-12-18T14:51:45.127Z,4.77
2022-12-18T15:06:46.607Z,4.67
2022-12-18T15:21:48.068Z,5.60
2022-12-18T15:36:49.559Z,5.17
2022-12-18T15:51:51.022Z,4.87
2022-12-18T16:07:14.389Z,4.60
2022-12-18T16:22:13.881Z,4.70
2022-12-18T16:37:15.341Z,4.17
2022-12-18T16:52:16.783Z,4.27
2022-12-18T17:07:19.675Z,4.60
2022-12-18T17:22:21.139Z,4.73
2022-12-18T17:37:22.596Z,4.83
2022-12-18T17:52:24.049Z,5.07
2022-12-18T18:07:26.956Z,5.80
2022-12-18T18:22:28.498Z,4.50
2022-12-18T18:37:30.106Z,4.67
2022-12-18T18:52:31.606Z,4.40
2022-12-18T19:07:33.073Z,4.80
2022-12-18T19:22:34.536Z,4.70
2022-12-18T19:37:35.986Z,4.90
2022-12-18T19:52:37.432Z,5.20
2022-12-18T20:07:38.889Z,4.87
2022-12-18T20:22:42.299Z,4.97
2022-12-18T20:37:49.810Z,5.43
2022-12-18T20:52:52.335Z,4.97
2022-12-18T21:07:53.833Z,5.63
2022-12-18T21:22:57.316Z,5.57
2022-12-18T21:38:04.339Z,4.80
2022-12-18T21:53:07.293Z,5.50
2022-12-18T22:08:08.744Z,6.17
2022-12-18T22:23:10.262Z,5.60
2022-12-18T22:38:11.713Z,6.17
2022-12-18T22:53:14.312Z,6.47
2022-12-18T23:08:15.780Z,5.90
2022-12-18T23:23:17.225Z,7.20
2022-12-18T23:38:18.669Z,6.10
2022-12-18T23:53:20.111Z,7.07
